Time;durP1;ratioP1;P1;durP2;ratioP2;P2;SDS_P1;SDS_P2;PMS_P1;PMS_P2;Temp;Humidity;BMP_temperature;BMP_pressure;BME280_temperature;BME280_humidity;BME280_pressure;Samples;Min_cycle;Max_cycle;Signal;HPM_P1;HPM_P2
2022/06/30 00:00:15;;;;;;;4.20;3.80;;;21.80;66.10;;;22.10;53.84;97291.38;5022468;28;20050;-38
2022/06/30 00:02:43;;;;;;;4.82;3.25;;;21.70;66.30;;;22.08;54.28;97288.09;5022439;28;20052;-39
2022/06/30 00:05:10;;;;;;;5.65;3.50;;;21.70;66.40;;;22.05;54.05;97283.16;5037879;28;20053;-39
2022/06/30 00:07:38;;;;;;;3.65;3.33;;;21.70;66.80;;;22.02;54.37;97274.47;5022350;28;20250;-39
2022/06/30 00:10:10;;;;;;;5.18;3.63;;;21.70;66.90;;;21.98;54.22;97277.88;5022360;28;20041;-39
2022/06/30 00:12:39;;;;;;;4.95;4.32;;;21.60;67.00;;;21.93;54.56;97284.03;5022105;28;20052;-40
2022/06/30 00:15:08;;;;;;;3.92;3.45;;;21.60;67.40;;;21.88;54.57;97280.41;5021974;28;20052;-38
2022/06/30 00:17:36;;;;;;;9.35;3.80;;;21.40;67.70;;;21.84;54.78;97277.38;5026826;28;20168;-39
2022/06/30 00:20:05;;;;;;;6.20;3.97;;;21.40;67.80;;;21.81;55.13;97286.00;5026262;28;20045;-40
2022/06/30 00:22:33;;;;;;;4.32;3.72;;;21.40;67.90;;;21.80;54.88;97287.03;5026150;28;20053;-42
2022/06/30 00:25:01;;;;;;;6.05;3.83;;;21.50;67.80;;;21.82;54.94;97284.91;5026446;28;20060;-41
2022/06/30 00:27:29;;;;;;;5.78;3.80;;;21.40;67.40;;;21.78;54.99;97281.84;5026234;28;20056;-39
2022/06/30 00:29:56;;;;;;;5.10;3.58;;;21.50;67.80;;;21.75;55.35;97276.94;5026095;28;20041;-39
2022/06/30 00:32:24;;;;;;;6.05;4.40;;;21.40;68.10;;;21.73;54.89;97276.38;5025902;28;20048;-40
2022/06/30 00:34:52;;;;;;;4.25;3.40;;;21.30;68.40;;;21.71;54.87;97274.94;5025794;28;20042;-40
2022/06/30 00:37:20;;;;;;;5.00;4.35;;;21.30;68.50;;;21.70;55.21;97273.31;5025806;28;20049;-40
2022/06/30 00:39:48;;;;;;;5.03;3.47;;;21.30;68.70;;;21.69;55.37;97275.16;5025566;28;20341;-39
2022/06/30 00:42:16;;;;;;;5.47;3.92;;;21.30;68.70;;;21.66;55.29;97272.97;5025595;28;20049;-39
2022/06/30 00:44:43;;;;;;;5.25;4.10;;;21.30;68.60;;;21.64;55.67;97266.97;5025457;28;20067;-39
2022/06/30 00:47:11;;;;;;;5.45;3.70;;;21.20;68.80;;;21.60;55.65;97268.53;5025611;28;20046;-39
2022/06/30 00:49:40;;;;;;;4.32;3.90;;;21.20;69.10;;;21.56;55.60;97272.78;5025386;28;20050;-38
2022/06/30 00:52:11;;;;;;;4.65;3.75;;;21.20;69.60;;;21.55;55.90;97277.34;5024537;28;20060;-39
2022/06/30 00:54:41;;;;;;;4.22;3.83;;;21.20;69.60;;;21.55;56.00;97281.94;5025949;28;20049;-38
2022/06/30 00:57:11;;;;;;;6.47;4.53;;;21.20;69.40;;;21.53;55.81;97270.53;5024115;28;20045;-39
2022/06/30 00:59:40;;;;;;;6.90;4.25;;;21.20;69.30;;;21.49;55.91;97270.19;5025199;28;20057;-39
2022/06/30 01:02:08;;;;;;;5.65;4.43;;;21.10;69.60;;;21.46;55.98;97262.56;5024326;28;20045;-39
2022/06/30 01:04:37;;;;;;;6.53;4.32;;;21.10;69.80;;;21.42;55.86;97258.63;5025597;28;20054;-39
2022/06/30 01:07:06;;;;;;;5.43;4.93;;;21.00;70.10;;;21.36;56.02;97254.19;5025213;28;20038;-39
2022/06/30 01:15:08;;;;;;;5.97;4.97;;;20.80;71.40;;;21.19;56.50;97259.50;5025032;28;20042;-39
2022/06/30 01:17:36;;;;;;;5.78;3.95;;;20.70;71.70;;;21.13;56.89;97257.75;5024496;28;20060;-40
2022/06/30 01:20:04;;;;;;;5.03;4.07;;;20.60;72.70;;;21.08;56.83;97257.69;5025942;28;20057;-39
2022/06/30 01:22:32;;;;;;;4.65;4.25;;;20.60;72.30;;;21.05;56.89;97253.53;5025737;28;20345;-40
2022/06/30 01:25:00;;;;;;;6.43;4.10;;;20.60;72.10;;;20.99;56.79;97251.78;5025251;28;20063;-39
2022/06/30 01:27:31;;;;;;;5.57;3.97;;;20.60;72.50;;;20.95;57.07;97251.44;5023831;28;20049;-39
2022/06/30 01:29:59;;;;;;;5.65;3.88;;;20.50;73.00;;;20.91;57.04;97257.56;5025975;28;20056;-40
2022/06/30 01:32:28;;;;;;;4.85;4.35;;;20.50;73.30;;;20.88;57.37;97249.91;5025582;28;20348;-39
2022/06/30 01:34:57;;;;;;;6.60;3.90;;;20.40;73.20;;;20.83;57.39;97254.16;5024977;28;20232;-39
2022/06/30 01:37:26;;;;;;;5.35;4.82;;;20.40;73.70;;;20.83;57.53;97256.03;5023322;28;20068;-39
2022/06/30 01:39:54;;;;;;;4.97;3.72;;;20.40;73.40;;;20.84;57.15;97249.59;5025171;28;20060;-39
2022/06/30 01:42:22;;;;;;;6.15;4.03;;;20.40;73.00;;;20.83;57.17;97248.75;5024551;28;20053;-39
2022/06/30 01:44:49;;;;;;;5.65;3.75;;;20.50;72.70;;;20.82;57.34;97247.13;5025056;28;20058;-39
2022/06/30 01:47:17;;;;;;;4.95;3.72;;;20.40;72.40;;;20.72;57.19;97251.47;5024598;28;20057;-39
2022/06/30 01:49:45;;;;;;;8.27;4.18;;;20.30;73.00;;;20.70;57.47;97250.88;5024086;28;20344;-40
2022/06/30 01:52:13;;;;;;;6.97;4.35;;;20.30;73.10;;;20.69;57.39;97251.94;5024291;28;20046;-39
2022/06/30 01:54:41;;;;;;;6.50;3.70;;;20.20;72.90;;;20.69;57.41;97250.06;5023124;28;20050;-39
2022/06/30 01:57:08;;;;;;;5.30;4.18;;;20.30;72.70;;;20.71;57.11;97239.00;5023240;28;20244;-39
2022/06/30 01:59:36;;;;;;;5.30;3.65;;;20.30;72.60;;;20.68;57.30;97240.28;5024036;28;20041;-39
2022/06/30 02:02:04;;;;;;;5.85;4.15;;;20.30;72.90;;;20.62;57.40;97247.44;5024355;28;20236;-39
2022/06/30 02:04:47;;;;;;;5.20;3.58;;;20.20;73.30;;;20.58;57.47;97240.03;5024823;28;20080;-39
2022/06/30 02:07:15;;;;;;;5.43;4.93;;;20.20;73.30;;;20.58;57.53;97243.53;5024117;28;20080;-39
2022/06/30 02:09:44;;;;;;;7.32;4.10;;;20.20;73.70;;;20.60;57.61;97236.06;5023770;28;20046;-39
2022/06/30 02:14:59;;;;;;;6.47;4.63;;;20.30;73.90;;;20.59;58.33;97242.53;5024893;28;20337;-39
2022/06/30 02:17:28;;;;;;;5.28;4.78;;;20.20;74.20;;;20.59;57.98;97241.69;5023599;28;20046;-39
2022/06/30 02:19:56;;;;;;;9.75;5.53;;;20.20;74.60;;;20.57;58.45;97231.09;5024000;28;20410;-39
2022/06/30 02:22:24;;;;;;;6.55;4.95;;;20.20;74.80;;;20.57;58.43;97232.97;5024280;28;20054;-39
2022/06/30 02:24:52;;;;;;;7.63;4.80;;;20.20;75.30;;;20.52;58.61;97230.97;5024365;28;20068;-39
2022/06/30 02:27:24;;;;;;;6.50;4.43;;;20.10;75.70;;;20.52;58.95;97243.69;5023759;28;20427;-39
2022/06/30 02:29:52;;;;;;;5.93;5.03;;;20.10;76.00;;;20.51;58.93;97234.75;5023553;28;20046;-39
2022/06/30 02:32:21;;;;;;;5.95;4.78;;;20.10;76.20;;;20.51;58.78;97244.72;5024024;28;20056;-39
2022/06/30 02:34:50;;;;;;;6.53;4.65;;;20.10;76.40;;;20.49;59.08;97233.31;5023515;28;20045;-39
2022/06/30 02:37:19;;;;;;;7.18;5.30;;;20.10;76.50;;;20.48;59.10;97237.91;5023621;28;20050;-39
2022/06/30 02:39:46;;;;;;;5.57;4.70;;;20.10;76.80;;;20.46;59.03;97234.63;5022274;28;20049;-39
2022/06/30 02:42:14;;;;;;;5.82;4.40;;;20.10;76.90;;;20.46;58.88;97240.03;5023828;28;20060;-39
2022/06/30 02:44:42;;;;;;;8.07;4.95;;;20.10;76.80;;;20.47;58.96;97244.34;5023557;28;20059;-39
2022/06/30 02:47:10;;;;;;;7.15;4.38;;;20.00;76.70;;;20.44;58.77;97240.25;5023405;28;20052;-39
2022/06/30 02:49:39;;;;;;;5.38;4.18;;;20.10;76.80;;;20.42;58.97;97245.06;5023610;28;20046;-39
2022/06/30 02:52:07;;;;;;;5.53;4.03;;;20.00;76.70;;;20.39;59.00;97234.72;5023816;28;20054;-39
2022/06/30 02:54:35;;;;;;;6.45;5.68;;;20.00;76.60;;;20.38;59.25;97235.78;5023044;28;20049;-39
2022/06/30 02:57:03;;;;;;;5.40;4.03;;;20.00;76.50;;;20.38;59.31;97240.38;5023151;28;20133;-39
2022/06/30 02:59:31;;;;;;;6.30;4.03;;;20.10;76.40;;;20.39;59.32;97245.53;5022643;28;20362;-39
2022/06/30 03:01:59;;;;;;;5.15;4.65;;;20.10;76.30;;;20.39;58.89;97242.81;5024172;28;20066;-38
2022/06/30 03:04:27;;;;;;;5.25;3.58;;;20.10;75.80;;;20.42;58.75;97247.78;5023013;28;20046;-39
2022/06/30 03:06:55;;;;;;;6.90;4.40;;;20.10;75.60;;;20.43;58.88;97243.19;5022975;28;20057;-39
2022/06/30 03:09:23;;;;;;;5.15;4.15;;;20.10;75.30;;;20.39;58.80;97237.41;5022291;28;20241;-39
2022/06/30 03:11:52;;;;;;;5.63;3.78;;;20.10;75.70;;;20.40;58.93;97239.09;5023244;28;20056;-38
2022/06/30 03:14:20;;;;;;;6.20;4.10;;;20.10;75.70;;;20.39;59.03;97234.72;5023378;28;20056;-39
2022/06/30 03:16:48;;;;;;;6.30;3.95;;;20.10;75.60;;;20.42;58.75;97238.84;5022965;28;20038;-39
2022/06/30 03:19:16;;;;;;;4.43;3.85;;;20.10;75.20;;;20.42;58.66;97238.84;5022641;28;20079;-39
2022/06/30 03:21:44;;;;;;;4.32;3.80;;;20.10;75.10;;;20.41;58.70;97239.91;5022890;28;20056;-39
2022/06/30 03:24:12;;;;;;;4.40;4.00;;;20.10;75.10;;;20.41;58.88;97234.50;5022581;28;20253;-39
2022/06/30 03:26:40;;;;;;;8.88;5.30;;;20.10;75.10;;;20.39;58.58;97233.91;5023015;28;20076;-39
2022/06/30 03:29:07;;;;;;;5.03;4.00;;;20.10;75.20;;;20.38;59.05;97226.88;5022693;28;20056;-39
2022/06/30 03:31:35;;;;;;;6.93;4.75;;;20.10;75.10;;;20.38;58.66;97233.09;5022537;28;20218;-39
2022/06/30 03:34:04;;;;;;;5.28;4.35;;;20.10;75.10;;;20.38;58.83;97234.97;5022560;28;20050;-40
2022/06/30 03:36:32;;;;;;;5.00;3.95;;;20.10;75.10;;;20.39;58.72;97225.78;5022609;28;20046;-39
2022/06/30 03:39:01;;;;;;;5.57;4.10;;;20.10;75.00;;;20.39;58.72;97232.00;5022306;28;20339;-39
2022/06/30 03:41:28;;;;;;;9.82;4.20;;;20.10;74.90;;;20.38;58.55;97234.97;5022626;28;20060;-39
2022/06/30 03:43:56;;;;;;;7.20;4.22;;;20.10;75.00;;;20.39;58.73;97232.00;5022548;28;20060;-39
2022/06/30 03:46:24;;;;;;;6.25;4.50;;;20.10;74.90;;;20.42;58.54;97228.03;5022528;28;20045;-39
2022/06/30 03:48:52;;;;;;;4.75;4.32;;;20.10;74.70;;;20.41;58.43;97220.97;5021879;28;20041;-39
2022/06/30 03:51:20;;;;;;;4.78;4.13;;;20.10;74.80;;;20.39;58.57;97229.31;5022848;28;20053;-39
2022/06/30 03:53:48;;;;;;;10.00;5.25;;;20.10;74.80;;;20.40;58.78;97230.97;5022211;28;20048;-39
2022/06/30 03:56:16;;;;;;;7.78;4.25;;;20.00;74.80;;;20.41;58.64;97218.25;5022387;28;20046;-39
2022/06/30 03:58:44;;;;;;;9.52;4.22;;;20.10;74.80;;;20.42;58.52;97219.94;5022176;28;20252;-39
2022/06/30 04:01:12;;;;;;;6.72;3.85;;;20.10;74.80;;;20.43;58.63;97221.56;5022465;28;20042;-39
2022/06/30 04:03:40;;;;;;;5.18;3.65;;;20.20;74.60;;;20.43;58.88;97222.41;5022922;28;20049;-39
2022/06/30 04:06:08;;;;;;;6.45;4.13;;;20.10;74.60;;;20.44;58.87;97231.31;5022921;28;20064;-39
2022/06/30 04:08:35;;;;;;;4.53;4.13;;;20.20;74.70;;;20.43;58.98;97232.38;5022041;28;20042;-39
2022/06/30 04:11:03;;;;;;;5.32;3.55;;;20.20;75.10;;;20.46;59.10;97240.84;5022257;28;20052;-39
2022/06/30 04:13:31;;;;;;;8.52;4.68;;;20.20;75.00;;;20.46;58.90;97230.03;5022491;28;20045;-39
2022/06/30 04:15:59;;;;;;;5.13;4.57;;;20.20;75.20;;;20.48;59.25;97226.28;5022075;28;20109;-39
2022/06/30 04:18:27;;;;;;;5.28;4.28;;;20.20;75.20;;;20.48;59.10;97224.38;5022105;28;20045;-39
2022/06/30 04:20:55;;;;;;;9.65;6.78;;;20.20;75.10;;;20.51;59.02;97225.78;5022132;28;20052;-39
2022/06/30 04:23:23;;;;;;;4.70;4.20;;;20.30;75.10;;;20.49;59.17;97230.63;5022166;28;20247;-39
2022/06/30 04:25:50;;;;;;;4.90;4.32;;;20.20;75.10;;;20.51;59.08;97226.63;5021703;28;20042;-39
2022/06/30 04:28:18;;;;;;;5.97;4.47;;;20.30;75.00;;;20.53;59.07;97231.78;5022015;28;20255;-39
2022/06/30 04:33:33;;;;;;;6.13;4.88;;;20.30;75.10;;;20.55;59.69;97235.06;5022103;28;20328;-39
2022/06/30 04:36:00;;;;;;;8.95;4.82;;;20.40;75.30;;;20.56;59.25;97240.25;5021898;28;20048;-39
2022/06/30 04:38:28;;;;;;;5.53;4.97;;;20.40;75.30;;;20.56;59.35;97232.16;5021852;28;20053;-39
2022/06/30 04:43:42;;;;;;;6.90;5.75;;;20.30;76.00;;;20.55;59.47;97229.66;5022652;28;20344;-40
2022/06/30 04:46:10;;;;;;;7.18;5.22;;;20.30;76.30;;;20.55;59.71;97226.97;5021738;28;20042;-39
2022/06/30 04:48:38;;;;;;;8.30;5.60;;;20.30;76.80;;;20.55;60.19;97224.25;5021631;28;20247;-39
2022/06/30 04:51:07;;;;;;;11.63;4.97;;;20.30;77.40;;;20.55;60.10;97217.00;5021830;28;20052;-39
2022/06/30 04:53:35;;;;;;;6.93;4.78;;;20.30;77.90;;;20.55;60.61;97211.59;5021948;28;20052;-40
2022/06/30 04:56:03;;;;;;;5.40;4.90;;;20.30;78.50;;;20.57;60.50;97212.19;5021379;28;20052;-40
2022/06/30 04:58:31;;;;;;;6.22;5.07;;;20.30;78.60;;;20.60;60.71;97219.00;5022253;28;20045;-40
2022/06/30 05:01:00;;;;;;;6.45;5.13;;;20.40;78.70;;;20.60;60.54;97219.00;5022102;28;20042;-40
2022/06/30 05:03:29;;;;;;;5.85;5.25;;;20.40;78.70;;;20.61;60.61;97218.78;5024786;28;20107;-40
2022/06/30 05:05:59;;;;;;;8.88;5.45;;;20.40;78.70;;;20.65;60.96;97229.97;5025856;28;20352;-40
2022/06/30 05:08:27;;;;;;;8.32;4.93;;;20.50;78.90;;;20.70;60.97;97223.81;5025073;28;20337;-40
2022/06/30 05:10:55;;;;;;;6.07;5.30;;;20.50;79.30;;;20.74;61.15;97228.50;5025160;28;20072;-40
2022/06/30 05:13:27;;;;;;;8.27;5.60;;;20.60;79.70;;;20.76;61.18;97229.13;5025264;28;20046;-40
2022/06/30 05:15:54;;;;;;;9.70;6.68;;;20.60;80.10;;;20.79;61.37;97228.63;5025553;28;20060;-40
2022/06/30 05:18:26;;;;;;;6.32;5.72;;;20.60;80.00;;;20.80;61.22;97226.75;5024658;28;20042;-40
2022/06/30 05:20:55;;;;;;;8.32;6.38;;;20.60;79.80;;;20.82;61.43;97233.59;5025315;28;20054;-39
2022/06/30 05:23:23;;;;;;;5.95;5.10;;;20.70;79.90;;;20.84;61.34;97225.25;5025101;28;20260;-40
2022/06/30 05:28:37;;;;;;;7.50;6.18;;;20.70;81.00;;;20.90;61.44;97229.69;5024266;28;20050;-39
2022/06/30 05:31:04;;;;;;;6.90;6.20;;;20.80;80.80;;;20.93;61.77;97226.50;5024848;28;20045;-40
2022/06/30 05:33:32;;;;;;;6.63;5.55;;;20.80;81.20;;;20.97;62.08;97224.16;5024826;28;20042;-40
2022/06/30 05:36:00;;;;;;;7.35;6.65;;;20.90;81.30;;;21.02;62.14;97229.69;5024481;28;20367;-40
2022/06/30 05:38:29;;;;;;;9.05;5.90;;;20.90;81.40;;;21.04;61.89;97222.97;5024478;28;20340;-40
2022/06/30 05:40:56;;;;;;;8.48;5.75;;;21.00;81.50;;;21.10;62.10;97228.50;5024634;28;20060;-40
2022/06/30 05:43:24;;;;;;;6.65;5.80;;;21.00;81.30;;;21.15;61.87;97224.00;5024581;28;20045;-39
2022/06/30 05:45:54;;;;;;;7.82;6.03;;;21.10;81.30;;;21.20;62.04;97224.09;5024369;28;20064;-40
2022/06/30 05:48:22;;;;;;;8.80;6.55;;;21.20;81.40;;;21.25;62.33;97215.28;5024740;28;20054;-40
2022/06/30 05:50:50;;;;;;;9.43;5.82;;;21.20;81.70;;;21.30;62.58;97219.94;5024238;28;20045;-40
2022/06/30 05:53:18;;;;;;;6.65;5.97;;;21.20;82.10;;;21.35;62.57;97217.34;5024499;28;20042;-40
2022/06/30 05:55:46;;;;;;;7.18;5.95;;;21.30;82.40;;;21.39;62.77;97226.63;5024832;28;20050;-40
2022/06/30 05:58:17;;;;;;;7.32;6.55;;;21.30;82.90;;;21.44;62.84;97224.03;5023821;28;20174;-40
2022/06/30 06:00:45;;;;;;;7.15;6.03;;;21.40;83.40;;;21.48;63.05;97217.09;5024490;28;20061;-40
2022/06/30 06:03:13;;;;;;;7.47;6.55;;;21.40;83.80;;;21.52;62.83;97214.72;5024134;28;20344;-40
2022/06/30 06:05:41;;;;;;;9.35;6.10;;;21.50;83.90;;;21.55;62.97;97214.25;5023950;28;20076;-40
2022/06/30 06:08:12;;;;;;;6.70;6.00;;;21.50;83.90;;;21.60;62.96;97214.34;5023917;28;20056;-40
2022/06/30 06:10:40;;;;;;;7.10;5.63;;;21.60;83.90;;;21.64;62.84;97215.50;5023252;28;20053;-40
2022/06/30 06:13:09;;;;;;;6.75;6.13;;;21.60;83.80;;;21.68;63.05;97208.53;5022762;28;20046;-40
2022/06/30 06:15:37;;;;;;;10.02;5.95;;;21.70;84.00;;;21.70;62.68;97217.25;5023825;28;20046;-40
2022/06/30 06:18:05;;;;;;;8.05;6.13;;;21.80;83.80;;;21.75;63.29;97214.63;5024538;28;20054;-40
2022/06/30 06:20:33;;;;;;;11.13;6.28;;;21.80;83.70;;;21.78;62.71;97218.72;5024424;28;20055;-40
2022/06/30 06:23:01;;;;;;;6.93;6.22;;;21.80;83.60;;;21.84;62.67;97228.59;5023879;28;20054;-40
2022/06/30 06:25:29;;;;;;;6.28;5.65;;;21.90;83.50;;;21.87;63.03;97211.84;5022590;28;20244;-40
2022/06/30 06:30:57;;;;;;;9.13;6.00;;;21.90;82.90;;;21.97;62.96;97217.44;5043706;28;20241;-40
2022/06/30 06:33:25;;;;;;;9.15;6.43;;;22.00;82.70;;;22.04;62.65;97217.28;5023568;28;20045;-40
2022/06/30 06:35:52;;;;;;;9.48;6.47;;;22.10;82.90;;;22.11;62.54;97217.94;5023362;28;20252;-40
2022/06/30 06:38:20;;;;;;;8.73;5.70;;;22.20;82.60;;;22.17;62.66;97218.84;5023242;28;20072;-40
2022/06/30 06:40:48;;;;;;;7.10;5.82;;;22.20;82.40;;;22.22;62.83;97222.47;5023574;28;20042;-40
2022/06/30 06:43:16;;;;;;;6.88;5.85;;;22.40;82.30;;;22.28;62.72;97218.00;5023423;28;20362;-40
2022/06/30 06:45:44;;;;;;;11.75;6.13;;;22.40;82.20;;;22.34;62.26;97222.41;5023349;28;20052;-40
2022/06/30 06:48:11;;;;;;;6.90;6.20;;;22.50;81.90;;;22.41;62.41;97222.25;5023195;28;20048;-40
2022/06/30 06:50:39;;;;;;;6.47;5.45;;;22.60;81.60;;;22.45;62.36;97217.16;5023254;28;20345;-40
2022/06/30 06:53:07;;;;;;;7.22;5.97;;;22.60;81.40;;;22.49;62.02;97223.72;5023197;28;20044;-39
2022/06/30 06:55:36;;;;;;;6.75;4.93;;;22.70;81.10;;;22.52;62.34;97220.53;5023114;28;20048;-40
2022/06/30 06:58:05;;;;;;;8.18;5.10;;;22.70;81.20;;;22.58;62.17;97211.38;5022992;28;20346;-40
2022/06/30 07:00:33;;;;;;;6.68;5.53;;;22.70;80.80;;;22.65;61.80;97216.66;5022990;28;20049;-40
2022/06/30 07:03:01;;;;;;;7.10;5.47;;;22.80;80.20;;;22.68;61.77;97213.41;5023203;28;20045;-40
2022/06/30 07:05:29;;;;;;;6.43;5.65;;;22.80;79.80;;;22.73;61.38;97219.75;5023009;28;20050;-40
2022/06/30 07:07:59;;;;;;;11.13;5.13;;;22.90;79.30;;;22.79;61.41;97215.22;5022741;28;20050;-40
2022/06/30 07:10:28;;;;;;;7.47;4.75;;;22.90;78.90;;;22.84;60.74;97228.88;5021891;28;20256;-40
2022/06/30 07:12:56;;;;;;;8.52;5.30;;;23.00;78.20;;;22.86;60.52;97220.47;5022770;28;20050;-40
2022/06/30 07:15:24;;;;;;;8.55;5.38;;;23.00;77.50;;;22.90;60.65;97225.16;5023665;28;20045;-40
2022/06/30 07:17:51;;;;;;;5.50;4.95;;;23.00;76.80;;;22.94;60.13;97218.13;5022485;28;20048;-40
2022/06/30 07:20:19;;;;;;;6.40;5.47;;;23.10;76.50;;;22.96;60.06;97221.41;5023324;28;20046;-40
2022/06/30 07:22:47;;;;;;;6.00;5.22;;;23.10;76.10;;;23.03;59.81;97225.88;5022809;28;20049;-40
2022/06/30 07:25:34;;;;;;;6.18;4.57;;;23.20;75.30;;;23.07;59.49;97224.28;5022125;28;20049;-40
2022/06/30 07:28:04;;;;;;;8.07;5.20;;;23.20;74.80;;;23.11;59.64;97220.84;5022692;28;20054;-40
2022/06/30 07:30:33;;;;;;;5.97;5.25;;;23.20;74.80;;;23.15;59.35;97216.53;5022689;28;20048;-40
2022/06/30 07:33:01;;;;;;;6.70;4.93;;;23.30;74.80;;;23.19;58.83;97217.69;5022697;28;20049;-39
2022/06/30 07:35:35;;;;;;;5.93;4.90;;;23.30;74.10;;;23.28;58.64;97220.75;5022428;28;20050;-39
2022/06/30 07:38:02;;;;;;;5.75;5.20;;;23.40;73.60;;;23.31;58.62;97216.72;5021529;28;20285;-39
2022/06/30 07:40:30;;;;;;;9.13;5.70;;;23.50;73.20;;;23.35;58.76;97212.44;5022633;28;20054;-39
2022/06/30 07:42:58;;;;;;;5.22;4.60;;;23.50;73.00;;;23.41;58.62;97216.84;5022467;28;20060;-39
2022/06/30 07:45:26;;;;;;;6.35;5.00;;;23.50;73.00;;;23.43;58.42;97209.25;5022369;28;20049;-39
2022/06/30 07:47:54;;;;;;;9.23;5.70;;;23.60;72.90;;;23.47;58.75;97204.16;5021766;28;20336;-39
2022/06/30 07:50:22;;;;;;;5.70;5.03;;;23.60;72.90;;;23.53;58.58;97209.38;5023422;28;20060;-39
2022/06/30 07:52:52;;;;;;;9.20;5.65;;;23.70;73.10;;;23.57;58.76;97204.25;5022482;28;20052;-39
2022/06/30 07:55:20;;;;;;;7.82;6.80;;;23.70;73.40;;;23.63;58.59;97202.41;5022378;28;20046;-38
2022/06/30 07:57:48;;;;;;;8.63;5.97;;;23.80;72.90;;;23.64;59.12;97193.19;5022102;28;20049;-39
2022/06/30 08:00:18;;;;;;;6.95;6.00;;;23.90;73.50;;;23.73;58.75;97191.63;5023055;28;20357;-39
2022/06/30 08:02:46;;;;;;;7.40;6.65;;;23.90;73.20;;;23.78;58.94;97195.25;5022481;28;20068;-39
2022/06/30 08:05:14;;;;;;;10.40;6.70;;;23.90;73.40;;;23.84;59.14;97190.69;5022252;28;20049;-39
2022/06/30 08:07:42;;;;;;;10.40;6.15;;;24.10;73.70;;;23.90;59.02;97194.28;5022756;28;20053;-39
2022/06/30 08:10:10;;;;;;;7.85;6.22;;;24.10;73.40;;;23.95;58.74;97197.88;5022730;28;20056;-39
2022/06/30 08:12:38;;;;;;;9.27;7.13;;;24.10;73.00;;;24.00;58.49;97198.97;5020955;28;20046;-39
2022/06/30 08:15:07;;;;;;;7.88;7.07;;;24.20;72.30;;;24.06;58.29;97206.94;5022288;28;20221;-39
2022/06/30 08:17:34;;;;;;;6.35;5.68;;;24.30;72.50;;;24.09;57.75;97202.88;5021900;28;20359;-38
2022/06/30 08:20:03;;;;;;;9.13;5.95;;;24.30;71.20;;;24.16;57.72;97203.50;5022672;28;20054;-39
2022/06/30 08:22:33;;;;;;;10.40;6.72;;;24.30;71.10;;;24.21;57.31;97199.97;5020738;28;20074;-39
2022/06/30 08:25:03;;;;;;;6.85;6.15;;;24.40;70.40;;;24.24;57.21;97204.91;5022523;28;20064;-39
2022/06/30 08:27:30;;;;;;;10.55;6.82;;;24.40;70.30;;;24.28;57.04;97201.41;5021749;28;20052;-39
2022/06/30 08:29:58;;;;;;;7.03;6.35;;;24.40;70.20;;;24.31;56.89;97205.50;5022077;28;20375;-39
2022/06/30 08:32:26;;;;;;;8.88;5.65;;;24.50;69.70;;;24.35;56.58;97203.91;5022304;28;20049;-39
2022/06/30 08:34:54;;;;;;;8.10;5.95;;;24.50;69.20;;;24.40;56.49;97198.50;5022026;28;20344;-39
2022/06/30 08:37:22;;;;;;;6.97;6.20;;;24.60;69.00;;;24.45;55.86;97203.97;5026179;28;20431;-39
2022/06/30 08:42:40;;;;;;;6.78;6.07;;;24.60;67.70;;;24.54;55.81;97204.31;5026157;28;20053;-40
2022/06/30 08:45:17;;;;;;;9.07;5.95;;;24.70;67.70;;;24.57;55.59;97198.38;5025696;28;20052;-39
2022/06/30 08:47:47;;;;;;;6.07;5.05;;;24.80;67.30;;;24.62;55.07;97189.41;5024355;28;20045;-38
2022/06/30 08:50:17;;;;;;;8.05;5.80;;;24.80;66.60;;;24.65;54.87;97184.28;5025401;28;20072;-38
2022/06/30 08:52:51;;;;;;;7.68;5.68;;;24.80;66.40;;;24.69;54.48;97179.94;5025546;28;20044;-39
2022/06/30 08:55:31;;;;;;;8.52;5.45;;;24.90;65.90;;;24.74;54.17;97182.69;5025338;28;20050;-39
2022/06/30 08:58:05;;;;;;;6.28;5.68;;;25.00;64.60;;;24.77;54.36;97179.44;5025298;28;20050;-40
2022/06/30 09:00:36;;;;;;;7.95;4.90;;;25.00;65.20;;;24.83;54.73;97176.75;5024384;28;20046;-40
2022/06/30 09:03:05;;;;;;;7.50;5.70;;;25.00;66.00;;;24.89;54.27;97173.81;5026025;28;20045;-40
2022/06/30 09:05:33;;;;;;;5.97;5.28;;;25.10;65.00;;;24.93;53.78;97177.63;5025368;28;20054;-40
2022/06/30 09:08:01;;;;;;;7.40;6.22;;;25.10;64.90;;;24.99;54.22;97175.75;5024919;28;20050;-40
2022/06/30 09:10:51;;;;;;;7.80;5.22;;;25.20;65.20;;;25.05;54.25;97177.41;5023961;28;20056;-40
2022/06/30 09:13:20;;;;;;;10.07;6.50;;;25.20;65.00;;;25.08;53.90;97182.31;5026130;28;20121;-40
2022/06/30 09:15:49;;;;;;;5.53;5.03;;;25.20;64.70;;;25.09;53.44;97175.78;5026049;28;20046;-40
2022/06/30 09:18:27;;;;;;;6.32;5.25;;;25.30;63.90;;;25.08;52.01;97165.97;5024921;28;20259;-40
2022/06/30 09:20:56;;;;;;;7.20;4.68;;;25.30;62.40;;;25.12;53.02;97168.97;5025163;28;20041;-40
2022/06/30 09:23:30;;;;;;;7.38;5.20;;;25.30;63.70;;;25.20;52.60;97170.38;5023822;28;20332;-40
2022/06/30 09:26:01;;;;;;;6.60;5.30;;;25.40;62.90;;;25.25;52.99;97163.06;5025586;28;20045;-40
2022/06/30 09:28:56;;;;;;;7.40;5.15;;;25.50;62.80;;;25.24;51.97;97164.16;5024727;28;20052;-40
2022/06/30 09:31:44;;;;;;;7.85;5.53;;;25.60;60.50;;;25.34;52.54;97161.47;5024722;28;20049;-38
2022/06/30 09:34:19;;;;;;;9.45;5.47;;;25.60;62.10;;;25.39;51.45;97159.84;5024641;28;20046;-40
2022/06/30 09:36:49;;;;;;;5.53;4.90;;;25.70;60.90;;;25.50;51.84;97161.50;5024707;28;20374;-40
2022/06/30 09:39:21;;;;;;;6.43;5.18;;;25.80;61.10;;;25.57;51.20;97164.81;5024594;28;20052;-40
2022/06/30 09:41:51;;;;;;;5.43;4.93;;;25.80;60.00;;;25.60;50.73;97150.63;5024108;28;20054;-40
2022/06/30 09:44:24;;;;;;;5.82;4.97;;;25.80;59.20;;;25.66;50.21;97163.16;5024375;28;20050;-40
2022/06/30 09:46:57;;;;;;;;;;;25.90;58.60;;;25.66;50.34;97146.81;5025163;28;20052;-40
2022/06/30 09:49:30;;;;;;;6.70;5.03;;;25.90;55.90;;;25.76;49.90;97151.44;5023570;28;19917;-40
2022/06/30 09:52:03;;;;;;;7.68;5.28;;;25.90;57.80;;;25.80;50.52;97144.38;5024953;28;20048;-40
2022/06/30 09:54:35;;;;;;;4.93;4.43;;;26.00;59.10;;;25.85;49.90;97141.66;5024072;28;20320;-40
2022/06/30 09:57:07;;;;;;;5.75;4.07;;;26.10;58.60;;;25.92;48.82;97139.50;5024377;28;20052;-40
2022/06/30 09:59:35;;;;;;;5.80;4.38;;;26.20;56.40;;;26.00;48.69;97149.06;5025020;28;20054;-40
2022/06/30 10:02:06;;;;;;;6.50;4.30;;;26.20;56.50;;;26.08;48.32;97143.06;5024166;28;20046;-40
2022/06/30 10:04:55;;;;;;;7.32;4.57;;;26.30;55.90;;;26.12;47.02;97143.31;5024052;28;20050;-40
2022/06/30 10:07:23;;;;;;;4.63;4.22;;;26.40;53.30;;;26.18;47.35;97142.22;5024379;28;20079;-39
2022/06/30 10:09:53;;;;;;;5.57;4.68;;;26.40;55.10;;;26.22;46.38;97134.31;5024290;28;20050;-40
2022/06/30 10:12:25;;;;;;;7.43;4.43;;;26.50;53.80;;;26.26;46.39;97133.47;5022769;28;20052;-40
2022/06/30 10:14:54;;;;;;;6.78;4.78;;;26.60;52.80;;;26.27;45.67;97135.13;5024354;28;20064;-40
2022/06/30 10:17:32;;;;;;;5.60;4.65;;;26.60;53.00;;;26.35;46.13;97138.38;5024063;28;20046;-40
2022/06/30 10:20:00;;;;;;;6.50;4.75;;;26.60;52.40;;;26.41;46.89;97129.91;5024852;28;20270;-40
2022/06/30 10:22:29;;;;;;;4.60;4.20;;;26.70;54.70;;;26.52;46.19;97131.53;5023976;28;20050;-39
2022/06/30 10:24:58;;;;;;;4.25;3.75;;;26.80;53.20;;;26.62;45.88;97113.50;5023462;28;20045;-40
2022/06/30 10:27:27;;;;;;;6.00;4.13;;;26.90;52.80;;;26.66;45.09;97114.63;5024100;28;20054;-40
2022/06/30 10:30:06;;;;;;;5.47;3.83;;;27.00;52.40;;;26.74;44.67;97126.88;5023771;28;20255;-40
2022/06/30 10:32:40;;;;;;;4.35;3.83;;;27.10;51.30;;;26.81;45.39;97124.66;5023922;28;20366;-40
2022/06/30 10:35:20;;;;;;;5.25;3.90;;;27.10;52.40;;;26.79;44.27;97121.38;5023630;28;20239;-40
2022/06/30 10:38:00;;;;;;;5.03;4.25;;;27.10;51.60;;;26.83;45.25;97123.28;5022436;28;20064;-40
2022/06/30 10:41:14;;;;;;;4.65;4.25;;;27.20;52.10;;;26.89;44.60;97119.44;5022671;28;20052;-40
2022/06/30 10:44:04;;;;;;;4.82;4.32;;;27.30;49.70;;;26.91;41.60;97119.16;5023852;28;20248;-40
2022/06/30 10:46:58;;;;;;;6.03;4.25;;;27.20;47.00;;;26.89;43.44;97105.78;5023406;28;20053;-40
2022/06/30 10:49:33;;;;;;;5.45;4.30;;;27.20;49.20;;;26.90;44.43;97101.94;5022256;28;20345;-40
2022/06/30 10:52:23;;;;;;;9.20;4.82;;;27.20;50.90;;;26.96;44.33;97105.47;5022264;28;20041;-40